sensor_id;sensor_type;location;lat;lon;timestamp;P1;durP1;ratioP1;P2;durP2;ratioP2
20101;SDS011;10210;52.284;9.892;2022-12-20T00:02:15;25.90;;;13.93;;
20101;SDS011;10210;52.284;9.892;2022-12-20T00:04:41;25.87;;;13.60;;
20101;SDS011;10210;52.284;9.892;2022-12-20T00:07:07;26.63;;;14.40;;
20101;SDS011;10210;52.284;9.892;2022-12-20T00:09:33;26.03;;;14.23;;
20101;SDS011;10210;52.284;9.892;2022-12-20T00:11:59;28.17;;;14.40;;
20101;SDS011;10210;52.284;9.892;2022-12-20T00:14:24;25.93;;;13.77;;
20101;SDS011;10210;52.284;9.892;2022-12-20T00:16:50;26.27;;;14.30;;
20101;SDS011;10210;52.284;9.892;2022-12-20T00:19:15;27.63;;;14.10;;
20101;SDS011;10210;52.284;9.892;2022-12-20T00:21:41;25.73;;;14.20;;
20101;SDS011;10210;52.284;9.892;2022-12-20T00:24:08;25.60;;;14.10;;
20101;SDS011;10210;52.284;9.892;2022-12-20T00:26:34;29.13;;;15.33;;
20101;SDS011;10210;52.284;9.892;2022-12-20T00:29:00;25.60;;;14.53;;
20101;SDS011;10210;52.284;9.892;2022-12-20T00:31:27;26.63;;;14.67;;
20101;SDS011;10210;52.284;9.892;2022-12-20T00:33:55;25.27;;;14.20;;
20101;SDS011;10210;52.284;9.892;2022-12-20T00:36:23;26.83;;;14.03;;
20101;SDS011;10210;52.284;9.892;2022-12-20T00:38:52;27.20;;;14.53;;
20101;SDS011;10210;52.284;9.892;2022-12-20T00:41:21;25.60;;;14.33;;
20101;SDS011;10210;52.284;9.892;2022-12-20T00:43:49;28.23;;;15.13;;
20101;SDS011;10210;52.284;9.892;2022-12-20T00:46:19;27.93;;;15.83;;
20101;SDS011;10210;52.284;9.892;2022-12-20T00:48:47;28.23;;;14.70;;
20101;SDS011;10210;52.284;9.892;2022-12-20T00:51:17;28.00;;;15.80;;
20101;SDS011;10210;52.284;9.892;2022-12-20T00:53:46;28.60;;;15.37;;
20101;SDS011;10210;52.284;9.892;2022-12-20T00:56:12;29.00;;;14.93;;
20101;SDS011;10210;52.284;9.892;2022-12-20T00:58:39;29.93;;;16.40;;
20101;SDS011;10210;52.284;9.892;2022-12-20T01:01:23;28.73;;;16.43;;
20101;SDS011;10210;52.284;9.892;2022-12-20T01:03:54;26.83;;;14.73;;
20101;SDS011;10210;52.284;9.892;2022-12-20T01:06:20;26.60;;;15.27;;
20101;SDS011;10210;52.284;9.892;2022-12-20T01:08:49;29.37;;;15.63;;
20101;SDS011;10210;52.284;9.892;2022-12-20T01:11:16;30.00;;;15.87;;
20101;SDS011;10210;52.284;9.892;2022-12-20T01:13:49;30.77;;;17.07;;
20101;SDS011;10210;52.284;9.892;2022-12-20T01:16:30;26.43;;;15.17;;
20101;SDS011;10210;52.284;9.892;2022-12-20T01:19:04;28.37;;;15.77;;
20101;SDS011;10210;52.284;9.892;2022-12-20T01:21:31;27.63;;;15.80;;
20101;SDS011;10210;52.284;9.892;2022-12-20T01:23:57;26.47;;;14.37;;
20101;SDS011;10210;52.284;9.892;2022-12-20T01:26:24;26.63;;;14.50;;
20101;SDS011;10210;52.284;9.892;2022-12-20T01:28:56;26.70;;;13.77;;
20101;SDS011;10210;52.284;9.892;2022-12-20T01:31:24;26.60;;;14.53;;
20101;SDS011;10210;52.284;9.892;2022-12-20T01:33:51;25.73;;;14.70;;
20101;SDS011;10210;52.284;9.892;2022-12-20T01:36:18;26.57;;;14.70;;
20101;SDS011;10210;52.284;9.892;2022-12-20T01:38:50;25.97;;;14.50;;
20101;SDS011;10210;52.284;9.892;2022-12-20T01:41:23;28.07;;;14.57;;
20101;SDS011;10210;52.284;9.892;2022-12-20T01:43:52;26.37;;;14.43;;
20101;SDS011;10210;52.284;9.892;2022-12-20T01:46:25;27.27;;;14.73;;
20101;SDS011;10210;52.284;9.892;2022-12-20T01:48:58;26.23;;;14.30;;
20101;SDS011;10210;52.284;9.892;2022-12-20T01:51:47;25.43;;;13.43;;
20101;SDS011;10210;52.284;9.892;2022-12-20T01:54:23;27.20;;;14.80;;
20101;SDS011;10210;52.284;9.892;2022-12-20T01:57:11;25.80;;;14.13;;
20101;SDS011;10210;52.284;9.892;2022-12-20T01:59:43;23.90;;;13.90;;
20101;SDS011;10210;52.284;9.892;2022-12-20T02:02:12;25.60;;;13.90;;
20101;SDS011;10210;52.284;9.892;2022-12-20T02:04:38;25.50;;;14.37;;
20101;SDS011;10210;52.284;9.892;2022-12-20T02:07:04;27.53;;;14.63;;
20101;SDS011;10210;52.284;9.892;2022-12-20T02:09:32;26.63;;;14.33;;
20101;SDS011;10210;52.284;9.892;2022-12-20T02:12:07;26.17;;;13.97;;
20101;SDS011;10210;52.284;9.892;2022-12-20T02:17:34;28.13;;;15.10;;
20101;SDS011;10210;52.284;9.892;2022-12-20T02:26:02;27.27;;;14.70;;
20101;SDS011;10210;52.284;9.892;2022-12-20T02:32:16;24.67;;;14.83;;
20101;SDS011;10210;52.284;9.892;2022-12-20T02:34:50;25.10;;;13.83;;
20101;SDS011;10210;52.284;9.892;2022-12-20T02:37:18;24.90;;;13.73;;
20101;SDS011;10210;52.284;9.892;2022-12-20T02:39:44;23.97;;;13.10;;
20101;SDS011;10210;52.284;9.892;2022-12-20T02:42:13;23.47;;;12.50;;
20101;SDS011;10210;52.284;9.892;2022-12-20T02:47:50;22.60;;;12.37;;
20101;SDS011;10210;52.284;9.892;2022-12-20T02:50:30;20.73;;;11.10;;
20101;SDS011;10210;52.284;9.892;2022-12-20T02:53:04;25.03;;;12.87;;
20101;SDS011;10210;52.284;9.892;2022-12-20T02:58:22;21.70;;;12.00;;
20101;SDS011;10210;52.284;9.892;2022-12-20T03:01:22;23.80;;;12.90;;
20101;SDS011;10210;52.284;9.892;2022-12-20T03:03:55;24.80;;;12.37;;
20101;SDS011;10210;52.284;9.892;2022-12-20T03:06:23;22.50;;;12.90;;
20101;SDS011;10210;52.284;9.892;2022-12-20T03:08:49;20.97;;;11.77;;
20101;SDS011;10210;52.284;9.892;2022-12-20T03:11:15;23.67;;;12.87;;
20101;SDS011;10210;52.284;9.892;2022-12-20T03:13:41;23.30;;;13.00;;
20101;SDS011;10210;52.284;9.892;2022-12-20T03:16:08;23.93;;;11.70;;
20101;SDS011;10210;52.284;9.892;2022-12-20T03:18:34;23.10;;;11.43;;
20101;SDS011;10210;52.284;9.892;2022-12-20T03:21:00;24.43;;;12.70;;
20101;SDS011;10210;52.284;9.892;2022-12-20T03:23:26;22.47;;;12.33;;
20101;SDS011;10210;52.284;9.892;2022-12-20T03:25:52;23.67;;;11.87;;
20101;SDS011;10210;52.284;9.892;2022-12-20T03:28:17;24.27;;;12.70;;
20101;SDS011;10210;52.284;9.892;2022-12-20T03:30:43;24.60;;;12.30;;
20101;SDS011;10210;52.284;9.892;2022-12-20T03:33:10;23.67;;;12.07;;
20101;SDS011;10210;52.284;9.892;2022-12-20T03:35:35;22.23;;;12.07;;
20101;SDS011;10210;52.284;9.892;2022-12-20T03:38:01;22.80;;;11.87;;
20101;SDS011;10210;52.284;9.892;2022-12-20T03:40:27;22.50;;;12.17;;
20101;SDS011;10210;52.284;9.892;2022-12-20T03:42:52;22.73;;;12.27;;
20101;SDS011;10210;52.284;9.892;2022-12-20T03:45:18;23.73;;;12.57;;
20101;SDS011;10210;52.284;9.892;2022-12-20T03:47:44;21.93;;;11.77;;
20101;SDS011;10210;52.284;9.892;2022-12-20T03:50:10;21.77;;;11.27;;
20101;SDS011;10210;52.284;9.892;2022-12-20T03:52:36;22.83;;;12.13;;
20101;SDS011;10210;52.284;9.892;2022-12-20T03:55:01;21.40;;;11.50;;
20101;SDS011;10210;52.284;9.892;2022-12-20T03:57:28;22.67;;;11.63;;
20101;SDS011;10210;52.284;9.892;2022-12-20T03:59:54;22.23;;;11.77;;
20101;SDS011;10210;52.284;9.892;2022-12-20T04:02:20;20.77;;;11.63;;
20101;SDS011;10210;52.284;9.892;2022-12-20T04:04:46;20.80;;;11.53;;
20101;SDS011;10210;52.284;9.892;2022-12-20T04:07:12;23.00;;;12.37;;
20101;SDS011;10210;52.284;9.892;2022-12-20T04:09:38;23.33;;;12.80;;
20101;SDS011;10210;52.284;9.892;2022-12-20T04:12:04;22.63;;;12.27;;
20101;SDS011;10210;52.284;9.892;2022-12-20T04:14:30;24.10;;;12.97;;
20101;SDS011;10210;52.284;9.892;2022-12-20T04:16:56;23.63;;;12.70;;
20101;SDS011;10210;52.284;9.892;2022-12-20T04:19:21;22.53;;;13.03;;
20101;SDS011;10210;52.284;9.892;2022-12-20T04:21:47;22.50;;;11.80;;
20101;SDS011;10210;52.284;9.892;2022-12-20T04:24:13;22.40;;;11.77;;
20101;SDS011;10210;52.284;9.892;2022-12-20T04:26:39;22.30;;;12.23;;
20101;SDS011;10210;52.284;9.892;2022-12-20T04:29:05;22.27;;;11.43;;
20101;SDS011;10210;52.284;9.892;2022-12-20T04:31:30;21.53;;;11.80;;
20101;SDS011;10210;52.284;9.892;2022-12-20T04:33:56;21.70;;;12.10;;
20101;SDS011;10210;52.284;9.892;2022-12-20T04:36:22;21.63;;;11.73;;
20101;SDS011;10210;52.284;9.892;2022-12-20T04:38:48;22.67;;;11.20;;
20101;SDS011;10210;52.284;9.892;2022-12-20T04:41:13;22.60;;;11.57;;
20101;SDS011;10210;52.284;9.892;2022-12-20T04:43:48;21.90;;;12.33;;
20101;SDS011;10210;52.284;9.892;2022-12-20T04:46:19;22.17;;;12.57;;
20101;SDS011;10210;52.284;9.892;2022-12-20T04:48:46;22.63;;;12.20;;
20101;SDS011;10210;52.284;9.892;2022-12-20T04:51:11;25.30;;;13.13;;
20101;SDS011;10210;52.284;9.892;2022-12-20T04:53:37;22.53;;;11.57;;
20101;SDS011;10210;52.284;9.892;2022-12-20T04:56:25;22.63;;;12.67;;
20101;SDS011;10210;52.284;9.892;2022-12-20T04:58:53;23.53;;;12.43;;
20101;SDS011;10210;52.284;9.892;2022-12-20T05:01:21;22.53;;;12.53;;
20101;SDS011;10210;52.284;9.892;2022-12-20T05:03:47;23.37;;;12.17;;
20101;SDS011;10210;52.284;9.892;2022-12-20T05:06:13;23.53;;;12.47;;
20101;SDS011;10210;52.284;9.892;2022-12-20T05:08:40;21.03;;;12.17;;
20101;SDS011;10210;52.284;9.892;2022-12-20T05:11:07;22.47;;;12.53;;
20101;SDS011;10210;52.284;9.892;2022-12-20T05:13:33;23.90;;;12.20;;
20101;SDS011;10210;52.284;9.892;2022-12-20T05:15:59;20.77;;;12.33;;
20101;SDS011;10210;52.284;9.892;2022-12-20T05:18:26;22.83;;;11.73;;
20101;SDS011;10210;52.284;9.892;2022-12-20T05:20:56;23.53;;;13.23;;
20101;SDS011;10210;52.284;9.892;2022-12-20T05:23:42;23.43;;;12.63;;
20101;SDS011;10210;52.284;9.892;2022-12-20T05:26:28;24.33;;;13.10;;
20101;SDS011;10210;52.284;9.892;2022-12-20T05:28:58;23.90;;;13.27;;
20101;SDS011;10210;52.284;9.892;2022-12-20T05:31:23;23.80;;;13.17;;
20101;SDS011;10210;52.284;9.892;2022-12-20T05:33:49;23.67;;;12.47;;
20101;SDS011;10210;52.284;9.892;2022-12-20T05:36:15;23.90;;;12.40;;
20101;SDS011;10210;52.284;9.892;2022-12-20T05:38:40;22.20;;;12.57;;
20101;SDS011;10210;52.284;9.892;2022-12-20T05:41:07;23.40;;;12.40;;
20101;SDS011;10210;52.284;9.892;2022-12-20T05:43:33;23.43;;;12.40;;
20101;SDS011;10210;52.284;9.892;2022-12-20T05:45:59;22.87;;;12.43;;
20101;SDS011;10210;52.284;9.892;2022-12-20T05:48:24;22.80;;;12.67;;
20101;SDS011;10210;52.284;9.892;2022-12-20T05:50:50;22.30;;;11.90;;
20101;SDS011;10210;52.284;9.892;2022-12-20T05:53:16;24.00;;;14.10;;
20101;SDS011;10210;52.284;9.892;2022-12-20T05:55:43;26.13;;;13.77;;
20101;SDS011;10210;52.284;9.892;2022-12-20T05:58:12;24.93;;;13.23;;
20101;SDS011;10210;52.284;9.892;2022-12-20T06:00:39;23.67;;;13.50;;
20101;SDS011;10210;52.284;9.892;2022-12-20T06:03:07;24.50;;;13.10;;
20101;SDS011;10210;52.284;9.892;2022-12-20T06:05:36;24.10;;;13.43;;
20101;SDS011;10210;52.284;9.892;2022-12-20T06:08:03;25.13;;;13.23;;
20101;SDS011;10210;52.284;9.892;2022-12-20T06:10:31;21.70;;;12.13;;
20101;SDS011;10210;52.284;9.892;2022-12-20T06:13:01;22.47;;;12.67;;
20101;SDS011;10210;52.284;9.892;2022-12-20T06:15:28;24.17;;;12.83;;
20101;SDS011;10210;52.284;9.892;2022-12-20T06:17:54;26.00;;;13.80;;
20101;SDS011;10210;52.284;9.892;2022-12-20T06:20:21;24.87;;;14.20;;
20101;SDS011;10210;52.284;9.892;2022-12-20T06:22:46;23.57;;;13.63;;
20101;SDS011;10210;52.284;9.892;2022-12-20T06:25:12;25.37;;;13.83;;
20101;SDS011;10210;52.284;9.892;2022-12-20T06:27:39;23.93;;;13.57;;
20101;SDS011;10210;52.284;9.892;2022-12-20T06:30:06;23.67;;;13.17;;
20101;SDS011;10210;52.284;9.892;2022-12-20T06:32:33;25.63;;;13.70;;
20101;SDS011;10210;52.284;9.892;2022-12-20T06:34:59;24.57;;;13.17;;
20101;SDS011;10210;52.284;9.892;2022-12-20T06:37:25;23.30;;;12.80;;
20101;SDS011;10210;52.284;9.892;2022-12-20T06:39:50;23.63;;;13.40;;
20101;SDS011;10210;52.284;9.892;2022-12-20T06:42:16;23.97;;;13.43;;
20101;SDS011;10210;52.284;9.892;2022-12-20T06:44:42;24.40;;;13.60;;
20101;SDS011;10210;52.284;9.892;2022-12-20T06:47:08;24.83;;;13.73;;
20101;SDS011;10210;52.284;9.892;2022-12-20T06:49:34;22.43;;;12.20;;
20101;SDS011;10210;52.284;9.892;2022-12-20T06:51:59;24.07;;;13.57;;
20101;SDS011;10210;52.284;9.892;2022-12-20T06:54:25;23.67;;;13.30;;
20101;SDS011;10210;52.284;9.892;2022-12-20T06:56:51;24.77;;;13.97;;
20101;SDS011;10210;52.284;9.892;2022-12-20T06:59:16;23.87;;;13.67;;
20101;SDS011;10210;52.284;9.892;2022-12-20T07:01:42;22.53;;;12.97;;
20101;SDS011;10210;52.284;9.892;2022-12-20T07:04:08;24.73;;;13.13;;
20101;SDS011;10210;52.284;9.892;2022-12-20T07:06:34;22.40;;;13.40;;
20101;SDS011;10210;52.284;9.892;2022-12-20T07:08:59;24.33;;;13.17;;
20101;SDS011;10210;52.284;9.892;2022-12-20T07:11:26;22.47;;;13.07;;
20101;SDS011;10210;52.284;9.892;2022-12-20T07:13:55;22.97;;;12.20;;
20101;SDS011;10210;52.284;9.892;2022-12-20T07:16:22;24.73;;;13.47;;
20101;SDS011;10210;52.284;9.892;2022-12-20T07:18:49;25.73;;;13.00;;
20101;SDS011;10210;52.284;9.892;2022-12-20T07:21:16;22.87;;;12.90;;
20101;SDS011;10210;52.284;9.892;2022-12-20T07:23:44;23.60;;;12.93;;
20101;SDS011;10210;52.284;9.892;2022-12-20T07:26:11;23.33;;;11.90;;
20101;SDS011;10210;52.284;9.892;2022-12-20T07:28:38;24.43;;;11.67;;
20101;SDS011;10210;52.284;9.892;2022-12-20T07:31:04;22.13;;;12.23;;
20101;SDS011;10210;52.284;9.892;2022-12-20T07:33:31;22.43;;;12.60;;
20101;SDS011;10210;52.284;9.892;2022-12-20T07:36:05;23.13;;;12.70;;
20101;SDS011;10210;52.284;9.892;2022-12-20T07:38:34;22.87;;;12.90;;
20101;SDS011;10210;52.284;9.892;2022-12-20T07:41:14;23.93;;;12.67;;
20101;SDS011;10210;52.284;9.892;2022-12-20T07:43:42;24.87;;;12.03;;
20101;SDS011;10210;52.284;9.892;2022-12-20T07:46:08;22.50;;;12.93;;
20101;SDS011;10210;52.284;9.892;2022-12-20T07:48:37;23.50;;;12.20;;
20101;SDS011;10210;52.284;9.892;2022-12-20T07:51:22;24.07;;;12.40;;
20101;SDS011;10210;52.284;9.892;2022-12-20T07:53:55;20.67;;;11.97;;
20101;SDS011;10210;52.284;9.892;2022-12-20T07:56:33;23.53;;;12.27;;
20101;SDS011;10210;52.284;9.892;2022-12-20T07:59:05;22.43;;;12.43;;
20101;SDS011;10210;52.284;9.892;2022-12-20T08:01:31;21.47;;;11.73;;
20101;SDS011;10210;52.284;9.892;2022-12-20T08:04:20;20.43;;;11.50;;
20101;SDS011;10210;52.284;9.892;2022-12-20T08:06:46;22.47;;;11.83;;
20101;SDS011;10210;52.284;9.892;2022-12-20T08:09:14;23.60;;;12.17;;
20101;SDS011;10210;52.284;9.892;2022-12-20T08:11:42;21.67;;;11.27;;
20101;SDS011;10210;52.284;9.892;2022-12-20T08:14:11;21.97;;;11.27;;
20101;SDS011;10210;52.284;9.892;2022-12-20T08:16:38;21.73;;;11.13;;
20101;SDS011;10210;52.284;9.892;2022-12-20T08:19:03;20.70;;;11.73;;
20101;SDS011;10210;52.284;9.892;2022-12-20T08:21:29;21.97;;;11.37;;
20101;SDS011;10210;52.284;9.892;2022-12-20T08:23:55;20.27;;;10.40;;
20101;SDS011;10210;52.284;9.892;2022-12-20T08:26:21;19.57;;;10.60;;
20101;SDS011;10210;52.284;9.892;2022-12-20T08:28:47;21.43;;;9.87;;
20101;SDS011;10210;52.284;9.892;2022-12-20T08:31:13;20.60;;;9.87;;
20101;SDS011;10210;52.284;9.892;2022-12-20T08:33:39;19.17;;;10.23;;
20101;SDS011;10210;52.284;9.892;2022-12-20T08:36:07;20.37;;;10.47;;
20101;SDS011;10210;52.284;9.892;2022-12-20T08:38:36;21.00;;;10.90;;
20101;SDS011;10210;52.284;9.892;2022-12-20T08:41:03;18.30;;;10.20;;
20101;SDS011;10210;52.284;9.892;2022-12-20T08:43:32;19.77;;;10.67;;
20101;SDS011;10210;52.284;9.892;2022-12-20T08:45:59;19.33;;;10.43;;
20101;SDS011;10210;52.284;9.892;2022-12-20T08:48:25;18.67;;;9.73;;
20101;SDS011;10210;52.284;9.892;2022-12-20T08:50:55;18.60;;;9.73;;
20101;SDS011;10210;52.284;9.892;2022-12-20T08:53:22;20.07;;;10.73;;
20101;SDS011;10210;52.284;9.892;2022-12-20T08:55:48;19.77;;;10.47;;
20101;SDS011;10210;52.284;9.892;2022-12-20T08:58:14;19.70;;;10.03;;
20101;SDS011;10210;52.284;9.892;2022-12-20T09:00:40;19.27;;;9.77;;
20101;SDS011;10210;52.284;9.892;2022-12-20T09:03:07;17.70;;;9.30;;
20101;SDS011;10210;52.284;9.892;2022-12-20T09:05:35;19.60;;;9.97;;
20101;SDS011;10210;52.284;9.892;2022-12-20T09:08:07;18.33;;;9.57;;
20101;SDS011;10210;52.284;9.892;2022-12-20T09:10:33;17.37;;;9.13;;
20101;SDS011;10210;52.284;9.892;2022-12-20T09:12:58;18.80;;;9.70;;
20101;SDS011;10210;52.284;9.892;2022-12-20T09:15:24;17.93;;;8.97;;
20101;SDS011;10210;52.284;9.892;2022-12-20T09:17:51;18.07;;;9.20;;
20101;SDS011;10210;52.284;9.892;2022-12-20T09:20:17;17.97;;;9.83;;
20101;SDS011;10210;52.284;9.892;2022-12-20T09:22:43;19.33;;;9.37;;
20101;SDS011;10210;52.284;9.892;2022-12-20T09:25:08;19.07;;;9.50;;
20101;SDS011;10210;52.284;9.892;2022-12-20T09:27:34;20.33;;;9.47;;
20101;SDS011;10210;52.284;9.892;2022-12-20T09:30:00;19.13;;;9.57;;
20101;SDS011;10210;52.284;9.892;2022-12-20T09:32:26;19.23;;;9.43;;
20101;SDS011;10210;52.284;9.892;2022-12-20T09:34:51;16.23;;;8.03;;
20101;SDS011;10210;52.284;9.892;2022-12-20T09:37:17;18.80;;;9.27;;
20101;SDS011;10210;52.284;9.892;2022-12-20T09:39:43;19.03;;;9.23;;
20101;SDS011;10210;52.284;9.892;2022-12-20T09:42:08;18.13;;;9.47;;
20101;SDS011;10210;52.284;9.892;2022-12-20T09:44:35;20.73;;;9.03;;
20101;SDS011;10210;52.284;9.892;2022-12-20T09:47:14;16.73;;;8.70;;
20101;SDS011;10210;52.284;9.892;2022-12-20T09:49:47;19.50;;;9.07;;
20101;SDS011;10210;52.284;9.892;2022-12-20T09:54:55;17.87;;;8.23;;
20101;SDS011;10210;52.284;9.892;2022-12-20T09:57:51;17.70;;;8.83;;
20101;SDS011;10210;52.284;9.892;2022-12-20T10:00:26;16.90;;;8.03;;
20101;SDS011;10210;52.284;9.892;2022-12-20T10:02:54;18.37;;;8.10;;
20101;SDS011;10210;52.284;9.892;2022-12-20T10:05:32;18.97;;;8.67;;
20101;SDS011;10210;52.284;9.892;2022-12-20T10:08:12;17.57;;;8.37;;
20101;SDS011;10210;52.284;9.892;2022-12-20T10:11:07;18.27;;;8.30;;
20101;SDS011;10210;52.284;9.892;2022-12-20T10:16:43;16.63;;;8.07;;
20101;SDS011;10210;52.284;9.892;2022-12-20T10:22:10;17.93;;;7.97;;
20101;SDS011;10210;52.284;9.892;2022-12-20T10:24:46;16.83;;;7.40;;
20101;SDS011;10210;52.284;9.892;2022-12-20T10:27:43;19.33;;;7.97;;
20101;SDS011;10210;52.284;9.892;2022-12-20T10:30:15;16.67;;;7.90;;
20101;SDS011;10210;52.284;9.892;2022-12-20T10:32:47;16.43;;;8.03;;
20101;SDS011;10210;52.284;9.892;2022-12-20T10:35:20;16.03;;;7.83;;
20101;SDS011;10210;52.284;9.892;2022-12-20T10:38:08;15.63;;;7.57;;
20101;SDS011;10210;52.284;9.892;2022-12-20T10:40:40;15.33;;;7.27;;
20101;SDS011;10210;52.284;9.892;2022-12-20T10:43:18;15.13;;;7.27;;
20101;SDS011;10210;52.284;9.892;2022-12-20T10:45:56;17.87;;;7.07;;
20101;SDS011;10210;52.284;9.892;2022-12-20T10:48:46;17.33;;;7.43;;
20101;SDS011;10210;52.284;9.892;2022-12-20T10:51:17;14.17;;;6.83;;
20101;SDS011;10210;52.284;9.892;2022-12-20T10:53:57;15.03;;;6.70;;
20101;SDS011;10210;52.284;9.892;2022-12-20T10:56:26;16.30;;;6.93;;
20101;SDS011;10210;52.284;9.892;2022-12-20T10:59:02;17.80;;;7.20;;
20101;SDS011;10210;52.284;9.892;2022-12-20T11:01:45;16.23;;;7.47;;
20101;SDS011;10210;52.284;9.892;2022-12-20T11:04:26;15.50;;;6.73;;
20101;SDS011;10210;52.284;9.892;2022-12-20T11:07:03;13.67;;;6.43;;
20101;SDS011;10210;52.284;9.892;2022-12-20T11:09:52;15.17;;;6.80;;
20101;SDS011;10210;52.284;9.892;2022-12-20T11:12:21;16.87;;;6.77;;
20101;SDS011;10210;52.284;9.892;2022-12-20T11:14:47;15.13;;;6.57;;
20101;SDS011;10210;52.284;9.892;2022-12-20T11:23:21;15.73;;;7.30;;
20101;SDS011;10210;52.284;9.892;2022-12-20T11:31:35;15.17;;;6.70;;
20101;SDS011;10210;52.284;9.892;2022-12-20T11:34:38;17.57;;;7.40;;
20101;SDS011;10210;52.284;9.892;2022-12-20T11:37:24;13.87;;;6.27;;
20101;SDS011;10210;52.284;9.892;2022-12-20T11:40:02;14.53;;;6.10;;
20101;SDS011;10210;52.284;9.892;2022-12-20T11:49:07;14.93;;;5.83;;
20101;SDS011;10210;52.284;9.892;2022-12-20T11:51:47;14.73;;;6.07;;
20101;SDS011;10210;52.284;9.892;2022-12-20T11:57:39;14.07;;;5.93;;
20101;SDS011;10210;52.284;9.892;2022-12-20T12:00:14;14.93;;;5.67;;
20101;SDS011;10210;52.284;9.892;2022-12-20T12:06:02;13.67;;;5.73;;
20101;SDS011;10210;52.284;9.892;2022-12-20T12:08:42;16.23;;;5.80;;
20101;SDS011;10210;52.284;9.892;2022-12-20T12:11:18;14.83;;;5.90;;
20101;SDS011;10210;52.284;9.892;2022-12-20T12:13:51;15.33;;;5.90;;
20101;SDS011;10210;52.284;9.892;2022-12-20T12:16:20;14.90;;;5.73;;
20101;SDS011;10210;52.284;9.892;2022-12-20T12:18:52;15.70;;;6.30;;
20101;SDS011;10210;52.284;9.892;2022-12-20T12:21:22;14.13;;;6.00;;
20101;SDS011;10210;52.284;9.892;2022-12-20T12:26:40;13.50;;;5.57;;
20101;SDS011;10210;52.284;9.892;2022-12-20T12:46:29;12.23;;;4.73;;
20101;SDS011;10210;52.284;9.892;2022-12-20T12:49:01;13.30;;;5.50;;
20101;SDS011;10210;52.284;9.892;2022-12-20T12:51:48;12.03;;;5.10;;
20101;SDS011;10210;52.284;9.892;2022-12-20T12:54:22;11.93;;;5.07;;
20101;SDS011;10210;52.284;9.892;2022-12-20T12:56:53;12.33;;;5.20;;
20101;SDS011;10210;52.284;9.892;2022-12-20T12:59:46;13.23;;;5.43;;
20101;SDS011;10210;52.284;9.892;2022-12-20T13:05:00;14.23;;;5.27;;
20101;SDS011;10210;52.284;9.892;2022-12-20T13:07:45;13.43;;;5.10;;
20101;SDS011;10210;52.284;9.892;2022-12-20T13:17:50;16.30;;;5.50;;
20101;SDS011;10210;52.284;9.892;2022-12-20T13:20:41;13.17;;;5.03;;
20101;SDS011;10210;52.284;9.892;2022-12-20T13:25:29;14.13;;;5.10;;
20101;SDS011;10210;52.284;9.892;2022-12-20T13:28:41;13.63;;;5.10;;
20101;SDS011;10210;52.284;9.892;2022-12-20T13:31:28;12.80;;;5.33;;
20101;SDS011;10210;52.284;9.892;2022-12-20T13:41:18;14.67;;;4.97;;
20101;SDS011;10210;52.284;9.892;2022-12-20T13:49:51;11.37;;;4.60;;
20101;SDS011;10210;52.284;9.892;2022-12-20T13:52:29;14.27;;;5.53;;
20101;SDS011;10210;52.284;9.892;2022-12-20T13:55:04;12.60;;;5.17;;
20101;SDS011;10210;52.284;9.892;2022-12-20T13:57:46;12.47;;;5.07;;
20101;SDS011;10210;52.284;9.892;2022-12-20T14:00:16;13.13;;;5.30;;
20101;SDS011;10210;52.284;9.892;2022-12-20T14:02:49;15.10;;;5.23;;
20101;SDS011;10210;52.284;9.892;2022-12-20T14:05:18;12.70;;;5.17;;
20101;SDS011;10210;52.284;9.892;2022-12-20T14:08:06;16.67;;;5.27;;
20101;SDS011;10210;52.284;9.892;2022-12-20T14:10:38;12.77;;;4.77;;
20101;SDS011;10210;52.284;9.892;2022-12-20T14:13:21;11.47;;;5.00;;
20101;SDS011;10210;52.284;9.892;2022-12-20T14:15:50;12.03;;;4.67;;
20101;SDS011;10210;52.284;9.892;2022-12-20T14:18:24;10.83;;;4.23;;
20101;SDS011;10210;52.284;9.892;2022-12-20T14:20:52;12.67;;;4.70;;
20101;SDS011;10210;52.284;9.892;2022-12-20T14:23:23;12.10;;;4.80;;
20101;SDS011;10210;52.284;9.892;2022-12-20T14:25:59;11.53;;;4.80;;
20101;SDS011;10210;52.284;9.892;2022-12-20T14:28:28;12.67;;;5.13;;
20101;SDS011;10210;52.284;9.892;2022-12-20T14:30:59;11.83;;;4.87;;
20101;SDS011;10210;52.284;9.892;2022-12-20T14:36:34;11.43;;;4.30;;
20101;SDS011;10210;52.284;9.892;2022-12-20T14:38:54;11.87;;;4.50;;
20101;SDS011;10210;52.284;9.892;2022-12-20T14:46:32;15.00;;;4.53;;
20101;SDS011;10210;52.284;9.892;2022-12-20T14:51:48;11.37;;;4.50;;
20101;SDS011;10210;52.284;9.892;2022-12-20T14:54:24;11.17;;;4.00;;
20101;SDS011;10210;52.284;9.892;2022-12-20T14:56:52;12.23;;;4.40;;
20101;SDS011;10210;52.284;9.892;2022-12-20T14:59:23;11.00;;;4.53;;
20101;SDS011;10210;52.284;9.892;2022-12-20T15:01:55;12.00;;;4.20;;
20101;SDS011;10210;52.284;9.892;2022-12-20T15:04:33;13.53;;;4.93;;
20101;SDS011;10210;52.284;9.892;2022-12-20T15:06:59;12.07;;;4.60;;
20101;SDS011;10210;52.284;9.892;2022-12-20T15:09:27;12.40;;;4.57;;
20101;SDS011;10210;52.284;9.892;2022-12-20T15:11:54;13.83;;;4.50;;
20101;SDS011;10210;52.284;9.892;2022-12-20T15:17:11;12.63;;;4.60;;
20101;SDS011;10210;52.284;9.892;2022-12-20T15:19:39;13.03;;;4.60;;
20101;SDS011;10210;52.284;9.892;2022-12-20T15:22:05;11.67;;;4.90;;
20101;SDS011;10210;52.284;9.892;2022-12-20T15:24:42;12.37;;;4.83;;
20101;SDS011;10210;52.284;9.892;2022-12-20T15:27:11;13.43;;;5.30;;
20101;SDS011;10210;52.284;9.892;2022-12-20T15:29:38;12.20;;;5.00;;
20101;SDS011;10210;52.284;9.892;2022-12-20T15:32:13;12.73;;;4.70;;
20101;SDS011;10210;52.284;9.892;2022-12-20T15:34:48;12.87;;;4.70;;
20101;SDS011;10210;52.284;9.892;2022-12-20T15:37:14;13.73;;;4.73;;
20101;SDS011;10210;52.284;9.892;2022-12-20T15:39:41;13.20;;;4.67;;
20101;SDS011;10210;52.284;9.892;2022-12-20T15:42:12;12.77;;;4.47;;
20101;SDS011;10210;52.284;9.892;2022-12-20T15:44:42;10.77;;;4.53;;
20101;SDS011;10210;52.284;9.892;2022-12-20T15:47:11;11.87;;;4.93;;
20101;SDS011;10210;52.284;9.892;2022-12-20T15:49:38;12.07;;;4.87;;
20101;SDS011;10210;52.284;9.892;2022-12-20T15:52:04;12.33;;;4.87;;
20101;SDS011;10210;52.284;9.892;2022-12-20T15:54:31;11.43;;;4.40;;
20101;SDS011;10210;52.284;9.892;2022-12-20T15:57:02;11.67;;;4.73;;
20101;SDS011;10210;52.284;9.892;2022-12-20T15:59:31;13.77;;;4.90;;
20101;SDS011;10210;52.284;9.892;2022-12-20T16:01:57;12.93;;;4.93;;
20101;SDS011;10210;52.284;9.892;2022-12-20T16:04:23;13.17;;;5.00;;
20101;SDS011;10210;52.284;9.892;2022-12-20T16:06:49;12.20;;;5.10;;
20101;SDS011;10210;52.284;9.892;2022-12-20T16:09:18;12.73;;;4.83;;
20101;SDS011;10210;52.284;9.892;2022-12-20T16:11:46;11.90;;;4.27;;
20101;SDS011;10210;52.284;9.892;2022-12-20T16:14:15;12.40;;;4.83;;
20101;SDS011;10210;52.284;9.892;2022-12-20T16:16:47;11.77;;;4.90;;
20101;SDS011;10210;52.284;9.892;2022-12-20T16:19:14;11.83;;;4.80;;
20101;SDS011;10210;52.284;9.892;2022-12-20T16:21:41;12.63;;;4.77;;
20101;SDS011;10210;52.284;9.892;2022-12-20T16:24:18;11.53;;;4.97;;
20101;SDS011;10210;52.284;9.892;2022-12-20T16:26:45;12.43;;;5.07;;
20101;SDS011;10210;52.284;9.892;2022-12-20T16:29:12;12.97;;;5.00;;
20101;SDS011;10210;52.284;9.892;2022-12-20T16:31:39;12.43;;;4.90;;
20101;SDS011;10210;52.284;9.892;2022-12-20T16:34:14;16.43;;;5.87;;
20101;SDS011;10210;52.284;9.892;2022-12-20T16:36:42;13.73;;;5.40;;